sensor_id;sensor_type;location;lat;lon;timestamp;P1;durP1;ratioP1;P2;durP2;ratioP2
19059;SDS011;9663;48.996;8.334;2023-01-29T00:02:26;4.95;;;2.00;;
19059;SDS011;9663;48.996;8.334;2023-01-29T00:04:51;5.10;;;2.00;;
19059;SDS011;9663;48.996;8.334;2023-01-29T00:07:17;4.20;;;1.83;;
19059;SDS011;9663;48.996;8.334;2023-01-29T00:09:43;4.25;;;1.90;;
19059;SDS011;9663;48.996;8.334;2023-01-29T00:12:09;5.20;;;2.28;;
19059;SDS011;9663;48.996;8.334;2023-01-29T00:14:34;4.55;;;2.00;;
19059;SDS011;9663;48.996;8.334;2023-01-29T00:17:00;4.18;;;1.90;;
19059;SDS011;9663;48.996;8.334;2023-01-29T00:19:26;5.88;;;2.05;;
19059;SDS011;9663;48.996;8.334;2023-01-29T00:21:51;4.25;;;2.38;;
19059;SDS011;9663;48.996;8.334;2023-01-29T00:24:17;4.53;;;2.00;;
19059;SDS011;9663;48.996;8.334;2023-01-29T00:26:44;5.53;;;1.98;;
19059;SDS011;9663;48.996;8.334;2023-01-29T00:29:09;4.63;;;2.25;;
19059;SDS011;9663;48.996;8.334;2023-01-29T00:31:35;4.30;;;2.05;;
19059;SDS011;9663;48.996;8.334;2023-01-29T00:34:01;5.07;;;1.90;;
19059;SDS011;9663;48.996;8.334;2023-01-29T00:36:27;4.70;;;2.03;;
19059;SDS011;9663;48.996;8.334;2023-01-29T00:38:56;4.30;;;1.90;;
19059;SDS011;9663;48.996;8.334;2023-01-29T00:41:27;5.07;;;2.00;;
19059;SDS011;9663;48.996;8.334;2023-01-29T00:44:15;4.20;;;1.90;;
19059;SDS011;9663;48.996;8.334;2023-01-29T00:47:00;4.20;;;1.90;;
19059;SDS011;9663;48.996;8.334;2023-01-29T00:49:27;4.53;;;2.13;;
19059;SDS011;9663;48.996;8.334;2023-01-29T00:51:54;5.15;;;2.03;;
19059;SDS011;9663;48.996;8.334;2023-01-29T00:54:38;4.15;;;1.75;;
19059;SDS011;9663;48.996;8.334;2023-01-29T00:57:04;5.07;;;2.20;;
19059;SDS011;9663;48.996;8.334;2023-01-29T00:59:29;4.70;;;2.00;;
19059;SDS011;9663;48.996;8.334;2023-01-29T01:01:55;4.68;;;1.77;;
19059;SDS011;9663;48.996;8.334;2023-01-29T01:04:39;4.50;;;1.90;;
19059;SDS011;9663;48.996;8.334;2023-01-29T01:07:05;4.75;;;1.85;;
19059;SDS011;9663;48.996;8.334;2023-01-29T01:09:35;5.13;;;2.38;;
19059;SDS011;9663;48.996;8.334;2023-01-29T01:12:20;5.55;;;2.00;;
19059;SDS011;9663;48.996;8.334;2023-01-29T01:14:46;4.38;;;1.90;;
19059;SDS011;9663;48.996;8.334;2023-01-29T01:17:12;5.13;;;2.20;;
19059;SDS011;9663;48.996;8.334;2023-01-29T01:19:39;4.38;;;2.03;;
19059;SDS011;9663;48.996;8.334;2023-01-29T01:22:05;3.88;;;1.70;;
19059;SDS011;9663;48.996;8.334;2023-01-29T01:24:31;4.20;;;1.73;;
19059;SDS011;9663;48.996;8.334;2023-01-29T01:26:56;4.40;;;1.85;;
19059;SDS011;9663;48.996;8.334;2023-01-29T01:29:22;4.75;;;2.08;;
19059;SDS011;9663;48.996;8.334;2023-01-29T01:31:48;5.93;;;2.20;;
19059;SDS011;9663;48.996;8.334;2023-01-29T01:34:14;3.72;;;1.52;;
19059;SDS011;9663;48.996;8.334;2023-01-29T01:36:40;4.18;;;2.00;;
19059;SDS011;9663;48.996;8.334;2023-01-29T01:39:05;3.65;;;1.75;;
19059;SDS011;9663;48.996;8.334;2023-01-29T01:41:31;3.88;;;1.80;;
19059;SDS011;9663;48.996;8.334;2023-01-29T01:43:58;4.50;;;1.98;;
19059;SDS011;9663;48.996;8.334;2023-01-29T01:46:30;4.72;;;1.90;;
19059;SDS011;9663;48.996;8.334;2023-01-29T01:49:10;4.45;;;2.13;;
19059;SDS011;9663;48.996;8.334;2023-01-29T01:51:47;3.80;;;1.70;;
19059;SDS011;9663;48.996;8.334;2023-01-29T01:54:26;3.92;;;1.77;;
19059;SDS011;9663;48.996;8.334;2023-01-29T01:56:57;4.13;;;1.70;;
19059;SDS011;9663;48.996;8.334;2023-01-29T01:59:36;4.15;;;1.88;;
19059;SDS011;9663;48.996;8.334;2023-01-29T02:02:04;4.03;;;1.75;;
19059;SDS011;9663;48.996;8.334;2023-01-29T02:04:50;5.00;;;2.33;;
19059;SDS011;9663;48.996;8.334;2023-01-29T02:07:39;4.68;;;2.25;;
19059;SDS011;9663;48.996;8.334;2023-01-29T02:10:28;4.30;;;2.00;;
19059;SDS011;9663;48.996;8.334;2023-01-29T02:13:05;4.65;;;2.30;;
19059;SDS011;9663;48.996;8.334;2023-01-29T02:15:32;6.28;;;2.00;;
19059;SDS011;9663;48.996;8.334;2023-01-29T02:17:58;4.78;;;1.92;;
19059;SDS011;9663;48.996;8.334;2023-01-29T02:20:25;3.97;;;2.08;;
19059;SDS011;9663;48.996;8.334;2023-01-29T02:28:43;4.75;;;2.17;;
19059;SDS011;9663;48.996;8.334;2023-01-29T02:31:55;4.40;;;1.90;;
19059;SDS011;9663;48.996;8.334;2023-01-29T02:34:41;4.63;;;2.10;;
19059;SDS011;9663;48.996;8.334;2023-01-29T02:38:15;4.53;;;1.85;;
19059;SDS011;9663;48.996;8.334;2023-01-29T02:41:14;4.93;;;2.10;;
19059;SDS011;9663;48.996;8.334;2023-01-29T02:43:55;4.13;;;1.80;;
19059;SDS011;9663;48.996;8.334;2023-01-29T02:46:34;4.40;;;1.98;;
19059;SDS011;9663;48.996;8.334;2023-01-29T02:52:30;4.63;;;2.13;;
19059;SDS011;9663;48.996;8.334;2023-01-29T02:55:20;4.20;;;1.80;;
19059;SDS011;9663;48.996;8.334;2023-01-29T02:58:00;4.50;;;1.85;;
19059;SDS011;9663;48.996;8.334;2023-01-29T03:00:36;4.70;;;2.10;;
19059;SDS011;9663;48.996;8.334;2023-01-29T03:08:31;5.95;;;2.35;;
19059;SDS011;9663;48.996;8.334;2023-01-29T03:11:10;4.78;;;2.38;;
19059;SDS011;9663;48.996;8.334;2023-01-29T03:16:16;4.82;;;2.15;;
19059;SDS011;9663;48.996;8.334;2023-01-29T03:19:00;4.85;;;2.03;;
19059;SDS011;9663;48.996;8.334;2023-01-29T03:21:33;5.03;;;2.20;;
19059;SDS011;9663;48.996;8.334;2023-01-29T03:27:32;4.50;;;2.10;;
19059;SDS011;9663;48.996;8.334;2023-01-29T03:30:31;4.72;;;1.85;;
19059;SDS011;9663;48.996;8.334;2023-01-29T03:33:23;5.03;;;1.90;;
19059;SDS011;9663;48.996;8.334;2023-01-29T03:36:01;4.75;;;1.85;;
19059;SDS011;9663;48.996;8.334;2023-01-29T03:39:02;4.47;;;2.10;;
19059;SDS011;9663;48.996;8.334;2023-01-29T03:41:34;4.78;;;2.50;;
19059;SDS011;9663;48.996;8.334;2023-01-29T03:47:17;5.03;;;1.90;;
19059;SDS011;9663;48.996;8.334;2023-01-29T03:49:55;4.70;;;1.98;;
19059;SDS011;9663;48.996;8.334;2023-01-29T03:52:43;3.97;;;1.85;;
19059;SDS011;9663;48.996;8.334;2023-01-29T03:55:36;3.78;;;1.65;;
19059;SDS011;9663;48.996;8.334;2023-01-29T04:01:24;6.00;;;2.20;;
19059;SDS011;9663;48.996;8.334;2023-01-29T04:04:22;5.03;;;2.10;;
19059;SDS011;9663;48.996;8.334;2023-01-29T04:06:54;5.25;;;2.33;;
19059;SDS011;9663;48.996;8.334;2023-01-29T04:09:45;4.50;;;1.88;;
19059;SDS011;9663;48.996;8.334;2023-01-29T04:12:24;5.13;;;2.17;;
19059;SDS011;9663;48.996;8.334;2023-01-29T04:15:00;4.43;;;2.00;;
19059;SDS011;9663;48.996;8.334;2023-01-29T04:17:33;4.55;;;2.30;;
19059;SDS011;9663;48.996;8.334;2023-01-29T04:20:07;6.20;;;2.65;;
19059;SDS011;9663;48.996;8.334;2023-01-29T04:22:36;5.22;;;2.20;;
19059;SDS011;9663;48.996;8.334;2023-01-29T04:25:05;4.68;;;2.25;;
19059;SDS011;9663;48.996;8.334;2023-01-29T04:39:16;4.80;;;2.20;;
19059;SDS011;9663;48.996;8.334;2023-01-29T04:41:49;5.50;;;2.10;;
19059;SDS011;9663;48.996;8.334;2023-01-29T04:44:32;5.20;;;2.33;;
19059;SDS011;9663;48.996;8.334;2023-01-29T04:47:23;5.47;;;2.03;;
19059;SDS011;9663;48.996;8.334;2023-01-29T04:53:35;4.60;;;2.03;;
19059;SDS011;9663;48.996;8.334;2023-01-29T04:57:19;4.60;;;2.00;;
19059;SDS011;9663;48.996;8.334;2023-01-29T04:59:32;4.63;;;2.22;;
19059;SDS011;9663;48.996;8.334;2023-01-29T05:02:06;4.70;;;2.08;;
19059;SDS011;9663;48.996;8.334;2023-01-29T05:04:36;4.43;;;1.98;;
19059;SDS011;9663;48.996;8.334;2023-01-29T05:07:07;4.88;;;2.25;;
19059;SDS011;9663;48.996;8.334;2023-01-29T05:09:37;4.55;;;2.00;;
19059;SDS011;9663;48.996;8.334;2023-01-29T05:12:08;5.32;;;2.05;;
19059;SDS011;9663;48.996;8.334;2023-01-29T05:14:38;4.80;;;2.42;;
19059;SDS011;9663;48.996;8.334;2023-01-29T05:17:09;5.25;;;2.35;;
19059;SDS011;9663;48.996;8.334;2023-01-29T05:19:43;4.63;;;2.08;;
19059;SDS011;9663;48.996;8.334;2023-01-29T05:22:11;4.90;;;2.28;;
19059;SDS011;9663;48.996;8.334;2023-01-29T05:24:41;4.60;;;2.22;;
19059;SDS011;9663;48.996;8.334;2023-01-29T05:27:08;4.80;;;2.25;;
19059;SDS011;9663;48.996;8.334;2023-01-29T05:30:00;5.28;;;2.10;;
19059;SDS011;9663;48.996;8.334;2023-01-29T05:32:26;3.72;;;1.85;;
19059;SDS011;9663;48.996;8.334;2023-01-29T05:34:51;5.50;;;2.30;;
19059;SDS011;9663;48.996;8.334;2023-01-29T05:37:17;5.20;;;2.00;;
19059;SDS011;9663;48.996;8.334;2023-01-29T05:39:43;4.45;;;2.25;;
19059;SDS011;9663;48.996;8.334;2023-01-29T05:42:08;5.03;;;2.15;;
19059;SDS011;9663;48.996;8.334;2023-01-29T05:44:34;4.78;;;2.03;;
19059;SDS011;9663;48.996;8.334;2023-01-29T05:46:59;4.65;;;1.88;;
19059;SDS011;9663;48.996;8.334;2023-01-29T05:49:26;4.53;;;2.20;;
19059;SDS011;9663;48.996;8.334;2023-01-29T05:51:52;4.50;;;2.10;;
19059;SDS011;9663;48.996;8.334;2023-01-29T05:54:18;4.57;;;2.00;;
19059;SDS011;9663;48.996;8.334;2023-01-29T05:56:44;4.45;;;2.08;;
19059;SDS011;9663;48.996;8.334;2023-01-29T05:59:09;5.05;;;2.20;;
19059;SDS011;9663;48.996;8.334;2023-01-29T06:01:35;4.72;;;2.00;;
19059;SDS011;9663;48.996;8.334;2023-01-29T06:04:01;4.55;;;2.10;;
19059;SDS011;9663;48.996;8.334;2023-01-29T06:06:27;4.45;;;2.17;;
19059;SDS011;9663;48.996;8.334;2023-01-29T06:08:52;4.75;;;2.25;;
19059;SDS011;9663;48.996;8.334;2023-01-29T06:11:19;4.90;;;2.22;;
19059;SDS011;9663;48.996;8.334;2023-01-29T06:13:45;5.35;;;2.53;;
19059;SDS011;9663;48.996;8.334;2023-01-29T06:16:12;4.80;;;2.28;;
19059;SDS011;9663;48.996;8.334;2023-01-29T06:18:39;4.05;;;1.95;;
19059;SDS011;9663;48.996;8.334;2023-01-29T06:21:07;6.57;;;2.50;;
19059;SDS011;9663;48.996;8.334;2023-01-29T06:23:36;5.20;;;2.40;;
19059;SDS011;9663;48.996;8.334;2023-01-29T06:26:03;5.05;;;2.60;;
19059;SDS011;9663;48.996;8.334;2023-01-29T06:28:32;5.55;;;2.47;;
19059;SDS011;9663;48.996;8.334;2023-01-29T06:30:59;5.22;;;2.20;;
19059;SDS011;9663;48.996;8.334;2023-01-29T06:33:27;5.28;;;2.55;;
19059;SDS011;9663;48.996;8.334;2023-01-29T06:36:00;5.25;;;2.78;;
19059;SDS011;9663;48.996;8.334;2023-01-29T06:38:28;4.60;;;1.98;;
19059;SDS011;9663;48.996;8.334;2023-01-29T06:40:54;5.60;;;2.63;;
19059;SDS011;9663;48.996;8.334;2023-01-29T06:43:21;5.43;;;2.63;;
19059;SDS011;9663;48.996;8.334;2023-01-29T06:45:54;5.15;;;2.22;;
19059;SDS011;9663;48.996;8.334;2023-01-29T06:48:22;5.32;;;2.30;;
19059;SDS011;9663;48.996;8.334;2023-01-29T06:50:49;5.47;;;2.50;;
19059;SDS011;9663;48.996;8.334;2023-01-29T06:53:15;5.00;;;2.40;;
19059;SDS011;9663;48.996;8.334;2023-01-29T06:55:42;5.15;;;2.35;;
19059;SDS011;9663;48.996;8.334;2023-01-29T06:58:09;4.60;;;2.13;;
19059;SDS011;9663;48.996;8.334;2023-01-29T07:00:36;4.88;;;2.35;;
19059;SDS011;9663;48.996;8.334;2023-01-29T07:03:03;4.57;;;2.15;;
19059;SDS011;9663;48.996;8.334;2023-01-29T07:05:29;5.20;;;2.50;;
19059;SDS011;9663;48.996;8.334;2023-01-29T07:07:55;6.05;;;2.30;;
19059;SDS011;9663;48.996;8.334;2023-01-29T07:10:22;5.15;;;2.50;;
19059;SDS011;9663;48.996;8.334;2023-01-29T07:12:48;5.50;;;2.45;;
19059;SDS011;9663;48.996;8.334;2023-01-29T07:15:13;5.05;;;2.17;;
19059;SDS011;9663;48.996;8.334;2023-01-29T07:17:47;5.72;;;2.45;;
19059;SDS011;9663;48.996;8.334;2023-01-29T07:20:25;5.57;;;2.78;;
19059;SDS011;9663;48.996;8.334;2023-01-29T07:22:53;5.20;;;2.30;;
19059;SDS011;9663;48.996;8.334;2023-01-29T07:25:21;6.60;;;2.88;;
19059;SDS011;9663;48.996;8.334;2023-01-29T07:27:47;5.50;;;2.67;;
19059;SDS011;9663;48.996;8.334;2023-01-29T07:30:13;4.70;;;2.10;;
19059;SDS011;9663;48.996;8.334;2023-01-29T07:32:40;5.20;;;2.42;;
19059;SDS011;9663;48.996;8.334;2023-01-29T07:35:06;4.72;;;2.15;;
19059;SDS011;9663;48.996;8.334;2023-01-29T07:37:32;5.05;;;2.22;;
19059;SDS011;9663;48.996;8.334;2023-01-29T07:39:58;4.88;;;2.20;;
19059;SDS011;9663;48.996;8.334;2023-01-29T07:42:23;5.10;;;2.13;;
19059;SDS011;9663;48.996;8.334;2023-01-29T07:44:49;4.97;;;2.28;;
19059;SDS011;9663;48.996;8.334;2023-01-29T07:47:15;6.35;;;2.55;;
19059;SDS011;9663;48.996;8.334;2023-01-29T07:49:40;4.47;;;2.20;;
19059;SDS011;9663;48.996;8.334;2023-01-29T07:52:06;5.32;;;2.25;;
19059;SDS011;9663;48.996;8.334;2023-01-29T07:54:31;4.75;;;2.28;;
19059;SDS011;9663;48.996;8.334;2023-01-29T07:56:57;5.03;;;2.22;;
19059;SDS011;9663;48.996;8.334;2023-01-29T07:59:23;5.20;;;1.92;;
19059;SDS011;9663;48.996;8.334;2023-01-29T08:01:48;5.60;;;2.42;;
19059;SDS011;9663;48.996;8.334;2023-01-29T08:04:22;5.15;;;2.58;;
19059;SDS011;9663;48.996;8.334;2023-01-29T08:06:47;4.68;;;2.33;;
19059;SDS011;9663;48.996;8.334;2023-01-29T08:09:13;5.15;;;2.25;;
19059;SDS011;9663;48.996;8.334;2023-01-29T08:11:39;5.32;;;2.17;;
19059;SDS011;9663;48.996;8.334;2023-01-29T08:14:04;4.78;;;2.03;;
19059;SDS011;9663;48.996;8.334;2023-01-29T08:16:30;5.03;;;1.70;;
19059;SDS011;9663;48.996;8.334;2023-01-29T08:18:55;4.70;;;2.33;;
19059;SDS011;9663;48.996;8.334;2023-01-29T08:21:21;5.03;;;2.00;;
19059;SDS011;9663;48.996;8.334;2023-01-29T08:23:50;4.78;;;2.20;;
19059;SDS011;9663;48.996;8.334;2023-01-29T08:26:15;4.45;;;2.15;;
19059;SDS011;9663;48.996;8.334;2023-01-29T08:28:41;6.45;;;2.00;;
19059;SDS011;9663;48.996;8.334;2023-01-29T08:31:14;4.93;;;2.10;;
19059;SDS011;9663;48.996;8.334;2023-01-29T08:33:41;4.10;;;2.08;;
19059;SDS011;9663;48.996;8.334;2023-01-29T08:36:07;4.57;;;2.10;;
19059;SDS011;9663;48.996;8.334;2023-01-29T08:38:33;4.47;;;1.98;;
19059;SDS011;9663;48.996;8.334;2023-01-29T08:40:59;4.38;;;2.05;;
19059;SDS011;9663;48.996;8.334;2023-01-29T08:43:25;4.38;;;2.00;;
19059;SDS011;9663;48.996;8.334;2023-01-29T08:45:51;4.32;;;2.22;;
19059;SDS011;9663;48.996;8.334;2023-01-29T08:48:16;4.55;;;2.28;;
19059;SDS011;9663;48.996;8.334;2023-01-29T08:50:42;6.70;;;1.92;;
19059;SDS011;9663;48.996;8.334;2023-01-29T08:53:08;4.25;;;2.10;;
19059;SDS011;9663;48.996;8.334;2023-01-29T08:55:34;4.10;;;1.88;;
19059;SDS011;9663;48.996;8.334;2023-01-29T08:58:05;4.65;;;2.00;;
19059;SDS011;9663;48.996;8.334;2023-01-29T09:00:35;4.28;;;1.85;;
19059;SDS011;9663;48.996;8.334;2023-01-29T09:03:01;5.53;;;2.05;;
19059;SDS011;9663;48.996;8.334;2023-01-29T09:05:28;4.30;;;1.95;;
19059;SDS011;9663;48.996;8.334;2023-01-29T09:07:56;4.22;;;2.22;;
19059;SDS011;9663;48.996;8.334;2023-01-29T09:10:22;5.80;;;2.20;;
19059;SDS011;9663;48.996;8.334;2023-01-29T09:12:48;4.32;;;2.22;;
19059;SDS011;9663;48.996;8.334;2023-01-29T09:15:14;4.47;;;2.20;;
19059;SDS011;9663;48.996;8.334;2023-01-29T09:17:39;4.43;;;2.10;;
19059;SDS011;9663;48.996;8.334;2023-01-29T09:20:05;5.47;;;2.53;;
19059;SDS011;9663;48.996;8.334;2023-01-29T09:22:32;5.45;;;2.70;;
19059;SDS011;9663;48.996;8.334;2023-01-29T09:24:58;5.90;;;3.08;;
19059;SDS011;9663;48.996;8.334;2023-01-29T09:27:24;5.65;;;2.50;;
19059;SDS011;9663;48.996;8.334;2023-01-29T09:29:49;5.63;;;3.13;;
19059;SDS011;9663;48.996;8.334;2023-01-29T09:32:15;6.95;;;3.00;;
19059;SDS011;9663;48.996;8.334;2023-01-29T09:34:41;6.90;;;3.50;;
19059;SDS011;9663;48.996;8.334;2023-01-29T09:37:06;6.28;;;3.53;;
19059;SDS011;9663;48.996;8.334;2023-01-29T09:39:32;5.32;;;2.83;;
19059;SDS011;9663;48.996;8.334;2023-01-29T09:47:13;4.82;;;2.28;;
19059;SDS011;9663;48.996;8.334;2023-01-29T09:49:42;4.53;;;2.17;;
19059;SDS011;9663;48.996;8.334;2023-01-29T09:54:50;5.40;;;2.47;;
19059;SDS011;9663;48.996;8.334;2023-01-29T09:57:49;5.10;;;2.53;;
19059;SDS011;9663;48.996;8.334;2023-01-29T10:06:28;4.55;;;2.10;;
19059;SDS011;9663;48.996;8.334;2023-01-29T10:15:13;4.88;;;2.35;;
19059;SDS011;9663;48.996;8.334;2023-01-29T10:24:11;5.03;;;2.60;;
19059;SDS011;9663;48.996;8.334;2023-01-29T10:27:00;5.18;;;2.47;;
19059;SDS011;9663;48.996;8.334;2023-01-29T10:29:27;4.15;;;1.83;;
19059;SDS011;9663;48.996;8.334;2023-01-29T10:31:55;4.85;;;2.30;;
19059;SDS011;9663;48.996;8.334;2023-01-29T10:34:40;4.60;;;2.20;;
19059;SDS011;9663;48.996;8.334;2023-01-29T10:37:35;4.43;;;2.13;;
19059;SDS011;9663;48.996;8.334;2023-01-29T10:52:16;4.43;;;2.10;;
19059;SDS011;9663;48.996;8.334;2023-01-29T10:57:50;4.80;;;2.17;;
19059;SDS011;9663;48.996;8.334;2023-01-29T11:00:34;4.15;;;1.90;;
19059;SDS011;9663;48.996;8.334;2023-01-29T11:03:18;5.00;;;2.40;;
19059;SDS011;9663;48.996;8.334;2023-01-29T11:05:56;5.85;;;2.53;;
19059;SDS011;9663;48.996;8.334;2023-01-29T11:08:37;4.53;;;1.98;;
19059;SDS011;9663;48.996;8.334;2023-01-29T11:11:13;5.93;;;2.47;;
19059;SDS011;9663;48.996;8.334;2023-01-29T11:13:49;4.65;;;2.30;;
19059;SDS011;9663;48.996;8.334;2023-01-29T11:16:24;4.78;;;2.08;;
19059;SDS011;9663;48.996;8.334;2023-01-29T11:18:54;4.55;;;2.08;;
19059;SDS011;9663;48.996;8.334;2023-01-29T11:21:24;4.03;;;2.20;;
19059;SDS011;9663;48.996;8.334;2023-01-29T11:24:04;4.03;;;2.00;;
19059;SDS011;9663;48.996;8.334;2023-01-29T11:26:41;4.50;;;2.03;;
19059;SDS011;9663;48.996;8.334;2023-01-29T11:29:26;4.20;;;2.10;;
19059;SDS011;9663;48.996;8.334;2023-01-29T11:32:09;4.53;;;2.30;;
19059;SDS011;9663;48.996;8.334;2023-01-29T11:37:44;3.92;;;1.83;;
19059;SDS011;9663;48.996;8.334;2023-01-29T11:42:42;4.78;;;2.20;;
19059;SDS011;9663;48.996;8.334;2023-01-29T11:45:25;3.70;;;1.70;;
19059;SDS011;9663;48.996;8.334;2023-01-29T11:47:54;4.40;;;1.90;;
19059;SDS011;9663;48.996;8.334;2023-01-29T11:50:28;4.00;;;1.90;;
19059;SDS011;9663;48.996;8.334;2023-01-29T11:53:00;3.75;;;1.90;;
19059;SDS011;9663;48.996;8.334;2023-01-29T11:55:29;3.75;;;1.65;;
19059;SDS011;9663;48.996;8.334;2023-01-29T11:58:13;3.00;;;1.20;;
19059;SDS011;9663;48.996;8.334;2023-01-29T12:00:48;3.28;;;1.58;;
19059;SDS011;9663;48.996;8.334;2023-01-29T12:03:21;2.90;;;1.40;;
19059;SDS011;9663;48.996;8.334;2023-01-29T12:05:59;3.80;;;1.60;;
19059;SDS011;9663;48.996;8.334;2023-01-29T12:08:36;3.63;;;1.50;;
19059;SDS011;9663;48.996;8.334;2023-01-29T12:11:07;3.78;;;1.52;;
19059;SDS011;9663;48.996;8.334;2023-01-29T12:13:47;3.47;;;1.55;;
19059;SDS011;9663;48.996;8.334;2023-01-29T12:19:05;3.50;;;1.45;;
19059;SDS011;9663;48.996;8.334;2023-01-29T12:21:59;3.38;;;1.65;;
19059;SDS011;9663;48.996;8.334;2023-01-29T12:24:49;3.35;;;1.48;;
19059;SDS011;9663;48.996;8.334;2023-01-29T12:27:43;3.33;;;1.67;;
19059;SDS011;9663;48.996;8.334;2023-01-29T12:30:24;3.53;;;1.77;;
19059;SDS011;9663;48.996;8.334;2023-01-29T12:33:00;3.75;;;1.73;;
19059;SDS011;9663;48.996;8.334;2023-01-29T12:36:37;3.28;;;1.65;;
19059;SDS011;9663;48.996;8.334;2023-01-29T12:39:00;3.92;;;1.70;;
19059;SDS011;9663;48.996;8.334;2023-01-29T12:41:31;3.35;;;1.63;;
19059;SDS011;9663;48.996;8.334;2023-01-29T12:46:55;3.65;;;1.85;;
19059;SDS011;9663;48.996;8.334;2023-01-29T12:49:31;3.90;;;1.75;;
19059;SDS011;9663;48.996;8.334;2023-01-29T12:52:11;3.75;;;1.88;;
19059;SDS011;9663;48.996;8.334;2023-01-29T12:54:47;4.78;;;1.80;;
19059;SDS011;9663;48.996;8.334;2023-01-29T13:00:02;3.55;;;1.63;;
19059;SDS011;9663;48.996;8.334;2023-01-29T13:05:33;4.30;;;2.10;;
19059;SDS011;9663;48.996;8.334;2023-01-29T13:08:17;3.55;;;1.60;;
19059;SDS011;9663;48.996;8.334;2023-01-29T13:11:03;3.75;;;1.70;;
19059;SDS011;9663;48.996;8.334;2023-01-29T13:16:28;3.58;;;1.65;;
19059;SDS011;9663;48.996;8.334;2023-01-29T13:19:05;4.30;;;2.13;;
19059;SDS011;9663;48.996;8.334;2023-01-29T13:22:02;4.43;;;1.80;;
19059;SDS011;9663;48.996;8.334;2023-01-29T13:24:41;4.10;;;1.80;;
19059;SDS011;9663;48.996;8.334;2023-01-29T13:27:11;3.47;;;1.48;;
19059;SDS011;9663;48.996;8.334;2023-01-29T13:29:49;3.72;;;1.80;;
19059;SDS011;9663;48.996;8.334;2023-01-29T13:32:19;4.47;;;1.67;;
19059;SDS011;9663;48.996;8.334;2023-01-29T13:34:58;2.97;;;1.27;;
19059;SDS011;9663;48.996;8.334;2023-01-29T13:40:07;3.55;;;1.48;;
19059;SDS011;9663;48.996;8.334;2023-01-29T13:42:48;3.58;;;1.40;;
19059;SDS011;9663;48.996;8.334;2023-01-29T13:45:21;3.38;;;1.40;;
19059;SDS011;9663;48.996;8.334;2023-01-29T13:48:07;4.82;;;2.80;;
19059;SDS011;9663;48.996;8.334;2023-01-29T13:50:49;3.85;;;1.92;;
19059;SDS011;9663;48.996;8.334;2023-01-29T13:53:21;4.55;;;2.00;;
19059;SDS011;9663;48.996;8.334;2023-01-29T13:55:50;4.53;;;2.13;;
19059;SDS011;9663;48.996;8.334;2023-01-29T14:00:57;4.28;;;1.90;;
19059;SDS011;9663;48.996;8.334;2023-01-29T14:13:40;4.05;;;1.90;;
19059;SDS011;9663;48.996;8.334;2023-01-29T14:18:34;3.58;;;1.60;;
19059;SDS011;9663;48.996;8.334;2023-01-29T14:23:49;4.03;;;1.70;;
19059;SDS011;9663;48.996;8.334;2023-01-29T14:29:02;4.40;;;2.00;;
19059;SDS011;9663;48.996;8.334;2023-01-29T14:31:29;4.30;;;1.98;;
19059;SDS011;9663;48.996;8.334;2023-01-29T14:34:05;6.45;;;2.33;;
19059;SDS011;9663;48.996;8.334;2023-01-29T14:37:00;4.10;;;2.03;;
19059;SDS011;9663;48.996;8.334;2023-01-29T14:39:44;4.57;;;2.10;;
19059;SDS011;9663;48.996;8.334;2023-01-29T14:45:29;4.63;;;2.08;;
19059;SDS011;9663;48.996;8.334;2023-01-29T14:47:59;4.03;;;1.83;;
19059;SDS011;9663;48.996;8.334;2023-01-29T14:53:03;4.18;;;2.03;;
19059;SDS011;9663;48.996;8.334;2023-01-29T14:55:42;3.88;;;1.88;;
19059;SDS011;9663;48.996;8.334;2023-01-29T14:58:37;4.53;;;2.33;;
19059;SDS011;9663;48.996;8.334;2023-01-29T15:01:18;4.60;;;2.00;;
19059;SDS011;9663;48.996;8.334;2023-01-29T15:04:06;4.22;;;2.05;;
19059;SDS011;9663;48.996;8.334;2023-01-29T15:06:46;4.50;;;2.10;;
19059;SDS011;9663;48.996;8.334;2023-01-29T15:12:15;4.68;;;2.28;;
19059;SDS011;9663;48.996;8.334;2023-01-29T15:17:29;4.72;;;2.22;;
19059;SDS011;9663;48.996;8.334;2023-01-29T15:20:25;4.35;;;2.15;;
19059;SDS011;9663;48.996;8.334;2023-01-29T15:22:54;4.28;;;2.17;;
19059;SDS011;9663;48.996;8.334;2023-01-29T15:25:19;3.97;;;1.80;;
19059;SDS011;9663;48.996;8.334;2023-01-29T15:27:46;3.80;;;1.80;;
19059;SDS011;9663;48.996;8.334;2023-01-29T15:30:14;5.37;;;2.83;;
19059;SDS011;9663;48.996;8.334;2023-01-29T15:32:49;6.80;;;3.17;;
19059;SDS011;9663;48.996;8.334;2023-01-29T15:35:25;5.75;;;2.78;;
19059;SDS011;9663;48.996;8.334;2023-01-29T15:38:00;5.55;;;2.60;;
19059;SDS011;9663;48.996;8.334;2023-01-29T15:40:28;6.00;;;2.67;;
19059;SDS011;9663;48.996;8.334;2023-01-29T15:42:55;5.05;;;2.60;;
19059;SDS011;9663;48.996;8.334;2023-01-29T15:45:27;4.93;;;2.55;;
19059;SDS011;9663;48.996;8.334;2023-01-29T15:47:58;5.07;;;2.30;;
19059;SDS011;9663;48.996;8.334;2023-01-29T15:50:32;5.63;;;2.60;;
19059;SDS011;9663;48.996;8.334;2023-01-29T15:53:05;4.72;;;2.50;;
19059;SDS011;9663;48.996;8.334;2023-01-29T15:55:37;5.18;;;2.25;;
19059;SDS011;9663;48.996;8.334;2023-01-29T15:58:04;4.95;;;2.47;;
19059;SDS011;9663;48.996;8.334;2023-01-29T16:00:39;4.13;;;1.88;;
19059;SDS011;9663;48.996;8.334;2023-01-29T16:03:12;4.63;;;2.30;;
19059;SDS011;9663;48.996;8.334;2023-01-29T16:05:39;5.07;;;1.85;;
19059;SDS011;9663;48.996;8.334;2023-01-29T16:08:05;5.45;;;2.25;;
19059;SDS011;9663;48.996;8.334;2023-01-29T16:10:37;6.13;;;2.30;;
19059;SDS011;9663;48.996;8.334;2023-01-29T16:13:08;4.70;;;2.00;;
19059;SDS011;9663;48.996;8.334;2023-01-29T16:16:01;5.63;;;2.53;;
19059;SDS011;9663;48.996;8.334;2023-01-29T16:18:44;5.07;;;2.10;;
19059;SDS011;9663;48.996;8.334;2023-01-29T16:23:54;5.22;;;2.33;;
19059;SDS011;9663;48.996;8.334;2023-01-29T16:26:26;4.95;;;2.42;;
19059;SDS011;9663;48.996;8.334;2023-01-29T16:28:56;4.65;;;2.25;;
19059;SDS011;9663;48.996;8.334;2023-01-29T16:31:34;5.00;;;2.33;;
19059;SDS011;9663;48.996;8.334;2023-01-29T16:34:05;5.20;;;2.08;;
19059;SDS011;9663;48.996;8.334;2023-01-29T16:36:45;4.95;;;2.35;;
19059;SDS011;9663;48.996;8.334;2023-01-29T16:39:17;4.82;;;2.15;;
19059;SDS011;9663;48.996;8.334;2023-01-29T16:47:28;5.97;;;2.60;;
19059;SDS011;9663;48.996;8.334;2023-01-29T16:50:00;5.25;;;2.42;;
19059;SDS011;9663;48.996;8.334;2023-01-29T16:52:56;5.45;;;2.42;;
19059;SDS011;9663;48.996;8.334;2023-01-29T16:55:42;5.70;;;2.75;;
19059;SDS011;9663;48.996;8.334;2023-01-29T16:58:14;5.30;;;2.50;;
19059;SDS011;9663;48.996;8.334;2023-01-29T17:00:47;5.10;;;2.30;;
19059;SDS011;9663;48.996;8.334;2023-01-29T17:03:17;5.00;;;2.35;;
19059;SDS011;9663;48.996;8.334;2023-01-29T17:05:45;6.32;;;2.63;;
19059;SDS011;9663;48.996;8.334;2023-01-29T17:08:16;7.00;;;2.80;;
19059;SDS011;9663;48.996;8.334;2023-01-29T17:10:56;5.07;;;2.30;;
19059;SDS011;9663;48.996;8.334;2023-01-29T17:13:27;5.75;;;2.65;;
19059;SDS011;9663;48.996;8.334;2023-01-29T17:18:49;6.13;;;2.63;;
19059;SDS011;9663;48.996;8.334;2023-01-29T17:21:15;6.32;;;2.70;;
19059;SDS011;9663;48.996;8.334;2023-01-29T17:23:40;5.85;;;2.78;;
19059;SDS011;9663;48.996;8.334;2023-01-29T17:26:06;5.50;;;2.75;;
19059;SDS011;9663;48.996;8.334;2023-01-29T17:28:37;5.47;;;2.90;;
19059;SDS011;9663;48.996;8.334;2023-01-29T17:31:03;6.55;;;2.92;;
19059;SDS011;9663;48.996;8.334;2023-01-29T17:33:31;7.35;;;3.00;;
19059;SDS011;9663;48.996;8.334;2023-01-29T17:35:56;7.68;;;3.47;;
19059;SDS011;9663;48.996;8.334;2023-01-29T17:38:22;5.75;;;3.00;;
19059;SDS011;9663;48.996;8.334;2023-01-29T17:40:59;7.43;;;3.53;;
19059;SDS011;9663;48.996;8.334;2023-01-29T17:43:50;6.97;;;3.25;;
19059;SDS011;9663;48.996;8.334;2023-01-29T17:46:16;5.80;;;2.90;;
19059;SDS011;9663;48.996;8.334;2023-01-29T17:48:44;6.32;;;3.08;;
19059;SDS011;9663;48.996;8.334;2023-01-29T17:51:14;6.35;;;3.05;;
19059;SDS011;9663;48.996;8.334;2023-01-29T17:53:42;6.65;;;3.10;;
19059;SDS011;9663;48.996;8.334;2023-01-29T17:56:15;6.63;;;3.25;;
19059;SDS011;9663;48.996;8.334;2023-01-29T17:58:54;6.22;;;3.03;;
19059;SDS011;9663;48.996;8.334;2023-01-29T18:01:20;6.10;;;3.10;;
19059;SDS011;9663;48.996;8.334;2023-01-29T18:03:46;6.25;;;2.90;;
19059;SDS011;9663;48.996;8.334;2023-01-29T18:06:18;7.97;;;3.50;;